Terminal Aerodrome Forecast
Issued by NWS Louisville, KY

Current Version | Previous Version | Text Only | Print | Product List | Glossary On
Versions: 1 2 3 4 5 6 7 8 9 10 11 12 13 14
314
FTUS43 KLMK 251720
TAFLEX
TAF
KLEX 251720Z 2518/2618 VRB03KT P6SM FEW250
     FM261000 00000KT 4SM BR FEW250
     FM261300 VRB03KT P6SM FEW250=

USA.gov is the U.S. government's official web portal to all federal, state and local government web resources and services.